createdAt,value
2016-02-07T14:20:06.465Z,56.48
2016-02-07T14:21:06.405Z,56.29
2016-02-07T14:22:06.377Z,55.82
2016-02-07T14:23:06.286Z,55.15
2016-02-07T14:24:06.243Z,55.34
2016-02-07T14:25:06.573Z,55.15
2016-02-07T14:26:06.155Z,54.96
2016-02-07T14:27:06.111Z,55.05
2016-02-07T14:28:06.053Z,54.86
2016-02-07T14:29:06.008Z,54.67
2016-02-07T14:30:05.964Z,54.48
2016-02-07T14:31:05.905Z,54.67
2016-02-07T14:32:05.845Z,55.05
2016-02-07T14:33:05.801Z,54.96
2016-02-07T14:34:05.945Z,54.96
2016-02-07T14:35:05.916Z,55.24
2016-02-07T14:36:05.856Z,55.24
2016-02-07T14:37:05.703Z,55.5
2016-02-07T14:38:05.690Z,55.15
2016-02-07T14:39:05.567Z,55.31
2016-02-07T14:40:05.462Z,55.6
2016-02-07T14:41:05.387Z,55.5
2016-02-07T14:42:05.357Z,55.41
2016-02-07T14:43:05.298Z,55.88
2016-02-07T14:44:05.237Z,55.98
2016-02-07T14:45:05.196Z,55.88
2016-02-07T14:46:05.153Z,55.98
2016-02-07T14:47:05.093Z,56.26
2016-02-07T14:48:05.064Z,55.98
2016-02-07T14:49:05.067Z,55.79
2016-02-07T14:50:04.913Z,55.98
2016-02-07T14:51:04.869Z,56.07
2016-02-07T14:52:04.825Z,56.36
2016-02-07T14:53:04.767Z,56.36
2016-02-07T14:54:04.708Z,56.46
2016-02-07T14:55:04.726Z,56.93
2016-02-07T14:56:04.666Z,57.09
2016-02-07T14:57:04.593Z,56.9
2016-02-07T14:58:04.518Z,57.76
2016-02-07T14:59:04.473Z,57.67
2016-02-07T15:00:04.444Z,57.86
2016-02-07T15:01:04.369Z,57.76
2016-02-07T15:02:04.324Z,58.52
2016-02-07T15:03:04.249Z,58.52
2016-02-07T15:04:04.207Z,58.52
2016-02-07T15:05:04.178Z,58.62
2016-02-07T15:06:04.104Z,58.62
2016-02-07T15:07:04.045Z,58.91
2016-02-07T15:08:04.000Z,59.76
2016-02-07T15:09:03.956Z,59.76
2016-02-07T15:10:03.881Z,59.76
2016-02-07T15:11:03.837Z,60.14
2016-02-07T15:12:03.795Z,60.81
2016-02-07T15:13:03.734Z,60.72
2016-02-07T15:14:03.694Z,60.91
2016-02-07T15:15:03.634Z,60.91
2016-02-07T15:16:03.575Z,60.88
2016-02-07T15:17:03.516Z,61.57
2016-02-07T15:18:03.487Z,61.73
2016-02-07T15:19:03.442Z,61.54
2016-02-07T15:20:03.371Z,62.02
2016-02-07T15:21:03.310Z,62.02
2016-02-07T15:22:03.251Z,61.93
2016-02-07T15:23:03.191Z,62.3
2016-02-07T15:24:03.148Z,62.02
2016-02-07T15:25:03.088Z,62.21
2016-02-07T15:26:03.058Z,62.59
2016-02-07T15:27:03.005Z,62.3
2016-02-07T15:28:03.039Z,62.4
2016-02-07T15:29:02.886Z,62.02
2016-02-07T15:30:02.825Z,62.3
2016-02-07T15:31:02.797Z,62.3
2016-02-07T15:32:02.768Z,62.88
2016-02-07T15:33:02.661Z,62.49
2016-02-07T15:34:02.649Z,63.07
2016-02-07T15:35:02.605Z,63.07
2016-02-07T15:36:02.529Z,62.88
2016-02-07T15:37:02.469Z,63.45
2016-02-07T15:38:02.425Z,63.73
2016-02-07T15:39:02.382Z,63.73
2016-02-07T15:40:02.337Z,63.73
2016-02-07T15:41:02.295Z,64.21
2016-02-07T15:42:02.219Z,64.12
2016-02-07T15:43:02.160Z,64.59
2016-02-07T15:44:02.115Z,64.5
2016-02-07T15:45:02.087Z,64.59
2016-02-07T15:46:02.011Z,64.59
2016-02-07T15:47:01.936Z,64.69
2016-02-07T15:48:01.923Z,64.59
2016-02-07T15:49:01.834Z,64.69
2016-02-07T15:50:01.790Z,64.69
2016-02-07T15:51:01.747Z,65.36
2016-02-07T15:52:01.703Z,65.03
2016-02-07T15:53:01.628Z,65.26
2016-02-07T15:54:01.587Z,65.32
2016-02-07T15:55:01.512Z,65.16
2016-02-07T15:56:01.500Z,65.45
2016-02-07T15:57:01.427Z,65.26
2016-02-07T15:58:01.383Z,66.02
2016-02-07T15:59:01.354Z,65.83
2016-02-07T16:00:01.263Z,66.18
2016-02-07T16:01:01.218Z,66.75
2016-02-07T16:02:01.174Z,65.8
2016-02-07T16:03:01.146Z,66.18
2016-02-07T16:04:01.085Z,66.46
2016-02-07T16:05:01.026Z,66.66
2016-02-07T16:06:00.982Z,66.66
2016-02-07T16:07:00.907Z,67.03
2016-02-07T16:08:00.864Z,67.03
2016-02-07T16:09:00.819Z,67.22
2016-02-07T16:10:00.747Z,67.13
2016-02-07T16:11:00.703Z,67.32
2016-02-07T16:12:00.642Z,67.32
2016-02-07T16:13:00.599Z,67.41
2016-02-07T16:14:00.555Z,67.03
2016-02-07T16:15:00.512Z,67.22
2016-02-07T16:16:00.451Z,67.32
2016-02-07T16:17:00.392Z,67.32
2016-02-07T16:18:00.363Z,67.03
2016-02-07T16:19:00.287Z,67.03
2016-02-07T16:20:00.243Z,67.41
2016-02-07T16:21:00.184Z,67.8
2016-02-07T16:22:00.156Z,67.7
2016-02-07T16:23:00.113Z,68.08
2016-02-07T16:24:00.028Z,67.51
2016-02-07T16:25:00.015Z,67.8
2016-02-07T16:25:59.940Z,68.37
2016-02-07T16:26:59.880Z,68.27
2016-02-07T16:27:59.820Z,68.27
2016-02-07T16:28:59.777Z,68.27
2016-02-07T16:29:59.733Z,67.51
2016-02-07T16:30:59.690Z,67.89
2016-02-07T16:31:59.613Z,68.18
2016-02-07T16:32:59.554Z,68.18
2016-02-07T16:33:59.509Z,67.61
2016-02-07T16:34:59.465Z,68.46
2016-02-07T16:35:59.421Z,68.84
2016-02-07T16:36:59.363Z,68.94
2016-02-07T16:37:59.318Z,69.23
2016-02-07T16:38:59.258Z,69.32
2016-02-07T16:39:59.214Z,69.23
2016-02-07T16:40:59.139Z,69.04
2016-02-07T16:41:59.094Z,68.84
2016-02-07T16:42:59.035Z,68.84
2016-02-07T16:43:58.991Z,68.46
2016-02-07T16:44:58.946Z,68.65
2016-02-07T16:45:58.901Z,68.18
2016-02-07T16:46:58.843Z,68.18
2016-02-07T16:47:58.814Z,68.27
2016-02-07T16:48:58.738Z,68.65
2016-02-07T16:49:58.680Z,68.56
2016-02-07T16:50:58.635Z,68.84
2016-02-07T16:51:58.591Z,68.94
2016-02-07T16:52:58.539Z,69.04
2016-02-07T16:53:58.496Z,69.51
2016-02-07T16:54:58.437Z,69.42
2016-02-07T16:55:58.362Z,69.51
2016-02-07T16:56:58.318Z,69.42
2016-02-07T16:57:58.259Z,69.51
2016-02-07T16:58:58.229Z,69.32
2016-02-07T16:59:58.170Z,69.13
2016-02-07T17:00:58.110Z,70.08
2016-02-07T17:01:58.066Z,69.99
2016-02-07T17:02:58.040Z,70.08
2016-02-07T17:03:57.964Z,69.79
2016-02-07T17:04:57.904Z,69.89
2016-02-07T17:05:57.861Z,70.27
2016-02-07T17:06:57.816Z,70.37
2016-02-07T17:07:57.772Z,70.27
2016-02-07T17:08:57.697Z,70.08
2016-02-07T17:09:57.683Z,70.08
2016-02-07T17:10:57.593Z,69.99
2016-02-07T17:11:57.581Z,70.27
2016-02-07T17:12:57.489Z,70.37
2016-02-07T17:13:57.461Z,70.65
2016-02-07T17:14:57.401Z,70.75
2016-02-07T17:15:57.357Z,71.13
2016-02-07T17:16:57.281Z,71.22
2016-02-07T17:17:57.237Z,71.98
2016-02-07T17:18:57.177Z,72.56
2016-02-07T17:19:57.117Z,72.75
2016-02-07T17:20:57.089Z,72.46
2016-02-07T17:21:57.020Z,72.27
2016-02-07T17:22:56.975Z,72.85
2016-02-07T17:23:56.931Z,72.52
2016-02-07T17:24:56.872Z,72.75
2016-02-07T17:25:56.842Z,72.75
2016-02-07T17:26:56.767Z,73.28
2016-02-07T17:27:56.705Z,72.81
2016-02-07T17:28:56.644Z,72.65
2016-02-07T17:29:56.616Z,72.9
2016-02-07T17:30:56.556Z,73.32
2016-02-07T17:31:56.514Z,73
2016-02-07T17:32:56.501Z,73.28
2016-02-07T17:33:56.394Z,73.13
2016-02-07T17:34:56.350Z,73.22
2016-02-07T17:35:56.306Z,73.38
2016-02-07T17:36:56.230Z,73.13
2016-02-07T17:37:56.172Z,73.1
2016-02-07T17:38:56.127Z,73.1
2016-02-07T17:39:56.084Z,73
2016-02-07T17:40:56.040Z,73.1
2016-02-07T17:41:55.980Z,73.66
2016-02-07T17:42:55.936Z,73.85
2016-02-07T17:43:55.860Z,74.14
2016-02-07T17:44:55.832Z,74.43
2016-02-07T17:45:55.759Z,74.04
2016-02-07T17:46:55.730Z,74.04
2016-02-07T17:47:55.639Z,74.9
2016-02-07T17:48:55.609Z,74.99
2016-02-07T17:49:55.534Z,75.19
2016-02-07T17:50:55.491Z,75.09
2016-02-07T17:51:55.652Z,75.28
2016-02-07T17:52:55.388Z,74.99
2016-02-07T17:53:55.313Z,75.67
2016-02-07T17:54:55.299Z,75.47
2016-02-07T17:55:55.208Z,75.47
2016-02-07T17:56:55.165Z,75.28
2016-02-07T17:57:55.121Z,75.28
2016-02-07T17:58:55.066Z,75.28
2016-02-07T17:59:54.990Z,75.47
2016-02-07T18:00:54.962Z,75.28
2016-02-07T18:01:54.902Z,75.62
2016-02-07T18:02:54.842Z,75.47
2016-02-07T18:03:54.782Z,75.47
2016-02-07T18:04:54.723Z,75.47
2016-02-07T18:05:54.679Z,75.28
2016-02-07T18:06:54.634Z,75.28
2016-02-07T18:07:54.574Z,75.19
2016-02-07T18:08:54.562Z,75.19
2016-02-07T18:09:54.487Z,75.24
2016-02-07T18:10:54.427Z,75.15
2016-02-07T18:11:54.368Z,74.58
2016-02-07T18:12:54.323Z,74.96
2016-02-07T18:13:54.248Z,75.34
2016-02-07T18:14:54.204Z,75.15
2016-02-07T18:15:54.160Z,74.67
2016-02-07T18:16:54.115Z,75.05
2016-02-07T18:17:54.023Z,75.24
2016-02-07T18:18:53.979Z,75.15
2016-02-07T18:19:53.930Z,74.96
2016-02-07T18:20:53.870Z,74.96
2016-02-07T18:21:53.825Z,74.87
2016-02-07T18:22:53.766Z,74.87
2016-02-07T18:23:53.738Z,74.77
2016-02-07T18:24:53.693Z,74.96
2016-02-07T18:25:53.603Z,75.34
2016-02-07T18:26:53.542Z,75.62
2016-02-07T18:27:53.514Z,75.24
2016-02-07T18:28:53.438Z,74.96
2016-02-07T18:29:53.379Z,75.53
2016-02-07T18:30:53.381Z,75.34
2016-02-07T18:31:53.274Z,75.34
2016-02-07T18:32:53.232Z,75.62
2016-02-07T18:33:53.204Z,75.81
2016-02-07T18:34:53.129Z,75.62
2016-02-07T18:35:53.053Z,75.81
2016-02-07T18:36:53.025Z,76.1
2016-02-07T18:37:52.949Z,75.91
2016-02-07T18:38:52.920Z,75.72
2016-02-07T18:39:52.861Z,76.1
2016-02-07T18:40:52.801Z,76.2
2016-02-07T18:41:52.773Z,75.62
2016-02-07T18:42:52.697Z,75.72
2016-02-07T18:43:52.653Z,75.81
2016-02-07T18:44:52.592Z,75.05
2016-02-07T18:45:52.533Z,75.15
2016-02-07T18:46:52.489Z,75.53
2016-02-07T18:47:52.444Z,75.43
2016-02-07T18:48:52.371Z,75.81
2016-02-07T18:49:52.343Z,75.53
2016-02-07T18:50:52.267Z,75.81
2016-02-07T18:51:52.223Z,76.01
2016-02-07T18:52:52.179Z,75.53
2016-02-07T18:53:52.135Z,75.34
2016-02-07T18:54:52.060Z,75.53
2016-02-07T18:55:52.000Z,75.43
2016-02-07T18:56:51.941Z,75.62
2016-02-07T18:57:51.881Z,75.34
2016-02-07T18:58:51.836Z,75.53
2016-02-07T18:59:51.792Z,75.34
2016-02-07T19:00:51.749Z,75.15
2016-02-07T19:01:51.704Z,75.53
2016-02-07T19:02:51.612Z,75.53
2016-02-07T19:03:51.600Z,75.43
2016-02-07T19:04:51.541Z,75.43
2016-02-07T19:05:51.480Z,75.62
2016-02-07T19:06:51.437Z,76.01
2016-02-07T19:07:51.361Z,76.39
2016-02-07T19:08:51.302Z,75.81
2016-02-07T19:09:51.274Z,76.1
2016-02-07T19:10:51.229Z,76.29
2016-02-07T19:11:51.154Z,76.16
2016-02-07T19:12:51.079Z,76.1
2016-02-07T19:13:51.097Z,76.48
2016-02-07T19:14:51.052Z,76.2
2016-02-07T19:15:50.931Z,76.39
2016-02-07T19:16:50.919Z,76.35
2016-02-07T19:17:50.827Z,76.39
2016-02-07T19:18:50.799Z,76.1
2016-02-07T19:19:50.726Z,75.72
2016-02-07T19:20:50.651Z,75.96
2016-02-07T19:21:50.606Z,76.44
2016-02-07T19:22:50.577Z,76.06
2016-02-07T19:23:50.502Z,75.68
2016-02-07T19:24:50.443Z,75.49
2016-02-07T19:25:50.399Z,75.78
2016-02-07T19:26:50.339Z,75.87
2016-02-07T19:27:50.279Z,75.78
2016-02-07T19:28:50.237Z,75.68
2016-02-07T19:29:50.177Z,75.96
2016-02-07T19:30:50.148Z,75.68
2016-02-07T19:31:50.073Z,75.4
2016-02-07T19:32:50.012Z,75.49
2016-02-07T19:33:49.954Z,75.4
2016-02-07T19:34:49.925Z,75.59
2016-02-07T19:35:49.850Z,75.68
2016-02-07T19:36:49.945Z,75.87
2016-02-07T19:37:49.761Z,75.96
2016-02-07T19:38:49.700Z,76.16
2016-02-07T19:39:49.642Z,75.49
2016-02-07T19:40:49.597Z,75.96
2016-02-07T19:41:49.537Z,76.63
2016-02-07T19:42:49.478Z,76.54
2016-02-07T19:43:49.418Z,76.25
2016-02-07T19:44:49.406Z,76.25
2016-02-07T19:45:49.331Z,76.16
2016-02-07T19:46:49.256Z,76.35
2016-02-07T19:47:49.211Z,76.73
2016-02-07T19:48:49.151Z,76.54
2016-02-07T19:49:49.099Z,76.35
2016-02-07T19:50:49.055Z,76.44
2016-02-07T19:51:48.979Z,76.35
2016-02-07T19:52:48.966Z,76.06
2016-02-07T19:53:48.875Z,76.54
2016-02-07T19:54:48.831Z,76.25
2016-02-07T19:55:48.786Z,77.01
2016-02-07T19:56:48.742Z,76.92
2016-02-07T19:57:48.683Z,76.88
2016-02-07T19:58:48.638Z,76.54
2016-02-07T19:59:48.563Z,76.82
2016-02-07T20:00:48.519Z,76.4
2016-02-07T20:01:48.460Z,76.16
2016-02-07T20:02:48.430Z,76.25
2016-02-07T20:03:48.341Z,76.06
2016-02-07T20:04:48.296Z,76.44
2016-02-07T20:05:48.268Z,76.25
2016-02-07T20:06:48.192Z,76.25
2016-02-07T20:07:48.132Z,76.06
2016-02-07T20:08:48.167Z,76.16
2016-02-07T20:09:48.029Z,77.3
2016-02-07T20:10:47.969Z,77.17
2016-02-07T20:11:47.925Z,76.69
2016-02-07T20:12:47.881Z,76.5
2016-02-07T20:13:47.853Z,76.16
2016-02-07T20:14:47.902Z,76.59
2016-02-07T20:15:47.713Z,76.88
2016-02-07T20:16:47.630Z,76.88
2016-02-07T20:17:47.544Z,76.5
2016-02-07T20:18:47.613Z,76.78
2016-02-07T20:19:47.432Z,77.01
2016-02-07T20:20:47.413Z,76.59
2016-02-07T20:21:47.332Z,76.5
2016-02-07T20:22:47.238Z,76.97
2016-02-07T20:23:47.204Z,76.88
2016-02-07T20:24:47.219Z,77.17
2016-02-07T20:25:47.312Z,77.17
2016-02-07T20:26:47.157Z,76.97
2016-02-07T20:27:47.158Z,77.07
2016-02-07T20:28:47.127Z,77.07
2016-02-07T20:29:47.036Z,77.01
2016-02-07T20:30:46.912Z,77.39
2016-02-07T20:31:46.758Z,77.17
2016-02-07T20:32:46.703Z,77.17
2016-02-07T20:33:46.627Z,77.92
2016-02-07T20:34:46.582Z,77.83
2016-02-07T20:35:46.536Z,77.64
2016-02-07T20:36:46.477Z,77.83
2016-02-07T20:37:46.401Z,77.55
2016-02-07T20:38:46.389Z,78.3
2016-02-07T20:39:46.299Z,77.92
2016-02-07T20:40:46.238Z,77.64
2016-02-07T20:41:46.226Z,77.55
2016-02-07T20:42:46.166Z,78.3
2016-02-07T20:43:46.106Z,78.5
2016-02-07T20:44:46.030Z,78.11
2016-02-07T20:45:46.018Z,77.73
2016-02-07T20:46:45.926Z,78.4
2016-02-07T20:47:45.867Z,78.21
2016-02-07T20:48:45.807Z,78.3
2016-02-07T20:49:45.767Z,78.3
2016-02-07T20:50:45.724Z,79.06
2016-02-07T20:51:45.632Z,78.78
2016-02-07T20:52:45.572Z,78.97
2016-02-07T20:53:45.529Z,78.78
2016-02-07T20:54:45.484Z,78.78
2016-02-07T20:55:45.455Z,79.35
2016-02-07T20:56:45.364Z,79.44
2016-02-07T20:57:45.445Z,79.92
2016-02-07T20:58:45.308Z,80.21
2016-02-07T20:59:45.203Z,80.11
2016-02-07T21:00:45.175Z,79.92
2016-02-07T21:01:45.116Z,79.92
2016-02-07T21:02:45.024Z,80.02
2016-02-07T21:03:44.996Z,80.02
2016-02-07T21:04:44.937Z,80.3
2016-02-07T21:05:44.893Z,79.83
2016-02-07T21:06:44.833Z,80.3
2016-02-07T21:07:44.758Z,79.73
2016-02-07T21:08:44.777Z,80.11
2016-02-07T21:09:44.685Z,80.3
2016-02-07T21:10:44.610Z,80.4
2016-02-07T21:11:44.551Z,80.21
2016-02-07T21:12:44.491Z,80.4
2016-02-07T21:13:44.479Z,79.92
2016-02-07T21:14:44.388Z,79.83
2016-02-07T21:15:44.376Z,79.92
2016-02-07T21:16:44.284Z,80.21
2016-02-07T21:17:44.350Z,79.92
2016-02-07T21:18:44.180Z,80.21
2016-02-07T21:19:44.273Z,80.02
2016-02-07T21:20:44.045Z,80.4
2016-02-07T21:21:44.016Z,80.21
2016-02-07T21:22:43.972Z,80.3
2016-02-07T21:23:43.913Z,80.21
2016-02-07T21:24:43.838Z,80.21
2016-02-07T21:25:43.793Z,80.68
2016-02-07T21:26:43.737Z,80.3
2016-02-07T21:27:43.709Z,80.4
2016-02-07T21:28:43.618Z,80.21
2016-02-07T21:29:43.559Z,80.21
2016-02-07T21:30:43.546Z,80.11
2016-02-07T21:31:43.486Z,80.21
2016-02-07T21:32:43.442Z,80.21
2016-02-07T21:33:43.335Z,80.11
2016-02-07T21:34:43.307Z,80.11
2016-02-07T21:35:43.263Z,80.11
2016-02-07T21:36:43.204Z,80.11
2016-02-07T21:37:43.144Z,80.3
2016-02-07T21:38:43.084Z,80.21
2016-02-07T21:39:43.025Z,80.02
2016-02-07T21:40:42.980Z,80.3
2016-02-07T21:41:42.922Z,80.11
2016-02-07T21:42:42.862Z,80.58
2016-02-07T21:43:42.817Z,80.77
2016-02-07T21:44:42.945Z,80.58
2016-02-07T21:45:42.792Z,81.16
2016-02-07T21:46:42.638Z,80.58
2016-02-07T21:47:42.706Z,81.06
2016-02-07T21:48:42.700Z,80.58
2016-02-07T21:49:42.688Z,80.96
2016-02-07T21:50:42.815Z,80.3
2016-02-07T21:51:42.709Z,80.3
2016-02-07T21:52:42.899Z,80.21
2016-02-07T21:53:42.418Z,80.21
2016-02-07T21:54:42.420Z,80.49
2016-02-07T21:55:42.424Z,80.3
2016-02-07T21:56:42.271Z,81.12
2016-02-07T21:57:42.195Z,81.12
2016-02-07T21:58:42.151Z,80.77
2016-02-07T21:59:42.154Z,80.68
2016-02-07T22:00:42.083Z,80.74
2016-02-07T22:01:41.992Z,81.21
2016-02-07T22:02:42.089Z,81.12
2016-02-07T22:03:41.889Z,81.3
2016-02-07T22:04:41.813Z,81.21
2016-02-07T22:05:41.769Z,81.3
2016-02-07T22:06:41.662Z,81.3
2016-02-07T22:07:41.711Z,80.93
2016-02-07T22:08:41.591Z,81.59
2016-02-07T22:09:41.547Z,81.68
2016-02-07T22:10:41.597Z,82.35
2016-02-07T22:11:41.490Z,81.97
2016-02-07T22:12:41.523Z,82.45
2016-02-07T22:13:41.387Z,81.87
2016-02-07T22:14:41.529Z,82.26
2016-02-07T22:15:41.250Z,82.82
2016-02-07T22:16:41.207Z,82.64
2016-02-07T22:17:40.992Z,82.73
2016-02-07T22:18:40.917Z,82.45
2016-02-07T22:19:41.091Z,82.35
2016-02-07T22:20:41.047Z,82.16
2016-02-07T22:21:40.894Z,82.45
